Schneider, IN (46376)

9:58 PM CDT on September 14, 2014 (GMT -0500)
Lincoln Township | Change Station
CLOSE
Current Station
Personal Weather Station
Location: Lake Village, IN
Elevation: 692 ft
Nearby Weather Stations
Active Advisory: Flood Warning

Elev 692 ft 41.13 °N, 87.35 °W | Updated 3 seconds ago

Clear
Clear
50.8 °F
Feels Like 50.8 °F
N
0.0
Wind Variable Wind from North
Gusts 0.0 mph

Today
High -- | Low -- °F
--% Chance of Precip.
Yesterday
High -- | Low -- °F
Precip. -- in
6:29 AM 7:00 PM
Waning Gibbous, 60% visible
Pressure 30.19 in
Visibility 10.0 miles
Clouds Clear
Dew Point 44 °F
Humidity 78%
Rainfall 0.00 in
Snow Depth Not available.
UV 0 out of 12
Pollen 6.40 out of 12
Ozone Good
PM2.5 Moderate
Flu Activity Not available.
METAR KIKK 150235Z AUTO 00000KT 10SM CLR 10/09 A3019 RMK AO2 T00980091

More Conditions Fewer Conditions

Pressure 30.19 in
Visibility 10.0 miles
Clouds Clear
Dew Point 44 °F
Humidity 78%
Rainfall 0.00 in
Snow Depth Not available.
UV 0 out of 12
Pollen 6.40 out of 12
Ozone Good
PM2.5 Moderate
Flu Activity Not available.
METAR KIKK 150235Z AUTO 00000KT 10SM CLR 10/09 A3019 RMK AO2 T00980091

More Conditions Fewer Conditions

10-Day Weather Forecast

Almanac

Astronomy

Sep. 14, 2014 Rise Set
Actual Time 6:29 AM CDT 7:00 PM CDT
Civil Twilight 6:01 AM CDT 7:28 PM CDT
Nautical Twilight 5:28 AM CDT 8:00 PM CDT
Astronomical Twilight 4:55 AM CDT 8:34 PM CDT
Moon 10:49 PM CDT (9/14) 12:38 PM CDT (9/14)
Length of Visible Light 13h 26m
Length of Day
12h 31m
Tomorrow will be 2m 43s shorter.
Waning Gibbous, 60% of the Moon is Illuminated
Today
Waning Gibbous
Sep 15
Last Quarter
Sep 24
New
Oct 1
First Quarter
Oct 8
Full

Today's Extremes

State Highs State Lows

Community

WunderPhotos

Upload Photos

1,753,385 photos uploaded!

Nearby

Air Quality

  Air Quality AQ Index Pollutant
Yesterday Good
PM10
Yesterday Good
OZONE
Current Moderate
PM2.5
Current Good
OZONE
Sunday Moderate
PM2.5
Sunday Good
OZONE
Monday Moderate
PM2.5
Monday Good
OZONE
Tuesday Good
OZONE
Wednesday Good
OZONE

Snow Depth

Station Depth Elevation
No new snow has been reported.

Earthquake Activity

City Distance Mag. Time & Date
No recent earthquake activity has been reported nearby.
Minimum magnitude displayed is 2.5.

Coastal Water Temperatures

Place Temperature
No Stations Reporting

Nearby Weather Stations